sensor_id;sensor_type;location;lat;lon;timestamp;pressure;altitude;pressure_sealevel;temperature;humidity
63115;BME280;49208;50.874;6.466;2024-03-06T07:01:44;100929.03;;;2.42;100.00
63115;BME280;49208;50.874;6.466;2024-03-06T07:04:10;100931.72;;;2.50;100.00
63115;BME280;49208;50.874;6.466;2024-03-06T07:06:35;100933.50;;;2.60;100.00
63115;BME280;49208;50.874;6.466;2024-03-06T07:09:00;100942.34;;;2.73;100.00
63115;BME280;49208;50.874;6.466;2024-03-06T07:11:26;100943.28;;;2.92;100.00
63115;BME280;49208;50.874;6.466;2024-03-06T07:13:51;100933.72;;;3.17;100.00
63115;BME280;49208;50.874;6.466;2024-03-06T07:16:17;100932.03;;;3.47;100.00
63115;BME280;49208;50.874;6.466;2024-03-06T07:18:42;100932.03;;;3.75;100.00
63115;BME280;49208;50.874;6.466;2024-03-06T07:21:07;100937.31;;;4.01;100.00
63115;BME280;49208;50.874;6.466;2024-03-06T07:23:33;100937.28;;;4.30;100.00
63115;BME280;49208;50.874;6.466;2024-03-06T07:25:58;100947.75;;;4.53;100.00
63115;BME280;49208;50.874;6.466;2024-03-06T07:28:25;100948.63;;;4.63;100.00
63115;BME280;49208;50.874;6.466;2024-03-06T07:30:51;100950.31;;;4.84;100.00
63115;BME280;49208;50.874;6.466;2024-03-06T07:33:16;100943.13;;;5.14;100.00
63115;BME280;49208;50.874;6.466;2024-03-06T07:35:42;100949.91;;;5.56;100.00
63115;BME280;49208;50.874;6.466;2024-03-06T07:38:07;100954.28;;;6.59;100.00
63115;BME280;49208;50.874;6.466;2024-03-06T07:40:34;100960.56;;;7.22;100.00
63115;BME280;49208;50.874;6.466;2024-03-06T07:42:59;100962.78;;;7.54;100.00
63115;BME280;49208;50.874;6.466;2024-03-06T07:45:25;100961.91;;;7.54;100.00
63115;BME280;49208;50.874;6.466;2024-03-06T07:47:51;100964.06;;;7.86;100.00
63115;BME280;49208;50.874;6.466;2024-03-06T07:50:17;100973.38;;;9.06;100.00
63115;BME280;49208;50.874;6.466;2024-03-06T07:52:45;100963.97;;;10.43;100.00
63115;BME280;49208;50.874;6.466;2024-03-06T07:55:11;100974.00;;;11.85;91.24
63115;BME280;49208;50.874;6.466;2024-03-06T07:57:36;100962.56;;;13.10;85.53
63115;BME280;49208;50.874;6.466;2024-03-06T08:00:02;100965.44;;;14.38;81.86
63115;BME280;49208;50.874;6.466;2024-03-06T08:02:42;100973.03;;;15.67;72.78
63115;BME280;49208;50.874;6.466;2024-03-06T08:05:15;100971.13;;;16.42;60.06
63115;BME280;49208;50.874;6.466;2024-03-06T08:07:41;100975.34;;;16.98;56.99
63115;BME280;49208;50.874;6.466;2024-03-06T08:10:11;100974.19;;;17.35;53.83
63115;BME280;49208;50.874;6.466;2024-03-06T08:12:41;100971.78;;;17.94;59.80
63115;BME280;49208;50.874;6.466;2024-03-06T08:15:07;100978.63;;;18.46;50.64
63115;BME280;49208;50.874;6.466;2024-03-06T08:17:35;100972.72;;;18.40;50.93
63115;BME280;49208;50.874;6.466;2024-03-06T08:20:00;100978.94;;;18.56;49.26
63115;BME280;49208;50.874;6.466;2024-03-06T08:22:26;100980.47;;;19.05;53.66
63115;BME280;49208;50.874;6.466;2024-03-06T08:24:52;100985.69;;;19.36;52.37
63115;BME280;49208;50.874;6.466;2024-03-06T08:27:17;100983.72;;;19.67;49.27
63115;BME280;49208;50.874;6.466;2024-03-06T08:29:44;100983.25;;;20.42;47.44
63115;BME280;49208;50.874;6.466;2024-03-06T08:32:09;100990.53;;;20.54;44.40
63115;BME280;49208;50.874;6.466;2024-03-06T08:34:35;101002.22;;;20.55;45.35
63115;BME280;49208;50.874;6.466;2024-03-06T08:37:00;101001.94;;;20.72;43.09
63115;BME280;49208;50.874;6.466;2024-03-06T08:39:25;101005.22;;;20.90;45.25
63115;BME280;49208;50.874;6.466;2024-03-06T08:41:51;101003.34;;;20.65;43.44
63115;BME280;49208;50.874;6.466;2024-03-06T08:44:18;101004.19;;;20.66;44.62
63115;BME280;49208;50.874;6.466;2024-03-06T08:46:43;101004.09;;;20.67;42.19
63115;BME280;49208;50.874;6.466;2024-03-06T08:49:08;101011.47;;;19.84;42.73
63115;BME280;49208;50.874;6.466;2024-03-06T08:51:34;101014.53;;;20.19;43.40
63115;BME280;49208;50.874;6.466;2024-03-06T08:53:59;101018.41;;;20.42;47.43
63115;BME280;49208;50.874;6.466;2024-03-06T08:56:24;101010.38;;;20.93;48.13
63115;BME280;49208;50.874;6.466;2024-03-06T08:58:50;101017.97;;;21.01;42.31
63115;BME280;49208;50.874;6.466;2024-03-06T09:01:15;101017.22;;;20.19;42.40
63115;BME280;49208;50.874;6.466;2024-03-06T09:03:41;101017.56;;;19.44;44.17
63115;BME280;49208;50.874;6.466;2024-03-06T09:06:06;101020.88;;;19.35;47.45
63115;BME280;49208;50.874;6.466;2024-03-06T09:08:32;101021.22;;;18.86;49.30
63115;BME280;49208;50.874;6.466;2024-03-06T09:10:57;101019.56;;;17.75;48.77
63115;BME280;49208;50.874;6.466;2024-03-06T09:13:25;101030.84;;;17.16;51.06
63115;BME280;49208;50.874;6.466;2024-03-06T09:15:50;101021.06;;;16.63;54.12
63115;BME280;49208;50.874;6.466;2024-03-06T09:18:15;101031.06;;;15.88;56.16
63115;BME280;49208;50.874;6.466;2024-03-06T09:20:41;101028.94;;;14.99;63.62
63115;BME280;49208;50.874;6.466;2024-03-06T09:23:08;101028.72;;;14.62;65.98
63115;BME280;49208;50.874;6.466;2024-03-06T09:25:33;101027.50;;;14.27;65.80
63115;BME280;49208;50.874;6.466;2024-03-06T09:27:59;101037.50;;;13.56;64.95
63115;BME280;49208;50.874;6.466;2024-03-06T09:30:25;101035.69;;;13.32;71.62
63115;BME280;49208;50.874;6.466;2024-03-06T09:32:53;101028.81;;;13.00;71.33
63115;BME280;49208;50.874;6.466;2024-03-06T09:35:18;101033.22;;;12.76;73.89
63115;BME280;49208;50.874;6.466;2024-03-06T09:37:44;101042.16;;;12.77;78.30
63115;BME280;49208;50.874;6.466;2024-03-06T09:40:11;101041.75;;;12.62;79.58
63115;BME280;49208;50.874;6.466;2024-03-06T09:42:44;101049.41;;;12.46;74.57
63115;BME280;49208;50.874;6.466;2024-03-06T09:45:10;101048.22;;;12.80;77.34
63115;BME280;49208;50.874;6.466;2024-03-06T09:47:35;101047.25;;;13.08;80.43
63115;BME280;49208;50.874;6.466;2024-03-06T09:50:02;101042.56;;;13.14;78.27
63115;BME280;49208;50.874;6.466;2024-03-06T09:52:28;101047.22;;;13.09;77.43
63115;BME280;49208;50.874;6.466;2024-03-06T09:54:55;101058.81;;;13.08;75.64
63115;BME280;49208;50.874;6.466;2024-03-06T09:57:21;101047.91;;;13.14;77.69
63115;BME280;49208;50.874;6.466;2024-03-06T09:59:46;101047.09;;;13.12;72.70
63115;BME280;49208;50.874;6.466;2024-03-06T10:02:31;101050.22;;;13.00;71.36
63115;BME280;49208;50.874;6.466;2024-03-06T10:04:59;101057.97;;;12.83;72.34
63115;BME280;49208;50.874;6.466;2024-03-06T10:07:25;101052.66;;;12.81;72.18
63115;BME280;49208;50.874;6.466;2024-03-06T10:09:52;101063.09;;;12.89;72.68
63115;BME280;49208;50.874;6.466;2024-03-06T10:12:18;101056.81;;;12.90;74.70
63115;BME280;49208;50.874;6.466;2024-03-06T10:14:50;101058.09;;;12.78;72.06
63115;BME280;49208;50.874;6.466;2024-03-06T10:17:21;101057.66;;;12.65;72.51
63115;BME280;49208;50.874;6.466;2024-03-06T10:19:52;101058.16;;;12.51;72.53
63115;BME280;49208;50.874;6.466;2024-03-06T10:22:20;101051.69;;;12.57;76.27
63115;BME280;49208;50.874;6.466;2024-03-06T10:24:49;101064.56;;;12.46;72.28
63115;BME280;49208;50.874;6.466;2024-03-06T10:27:15;101067.19;;;12.47;72.84
63115;BME280;49208;50.874;6.466;2024-03-06T10:29:44;101069.16;;;12.41;72.68
63115;BME280;49208;50.874;6.466;2024-03-06T10:32:09;101064.84;;;12.63;79.47
63115;BME280;49208;50.874;6.466;2024-03-06T10:34:37;101069.34;;;12.88;78.47
63115;BME280;49208;50.874;6.466;2024-03-06T10:37:03;101067.22;;;12.98;75.18
63115;BME280;49208;50.874;6.466;2024-03-06T10:39:35;101074.34;;;12.72;73.26
63115;BME280;49208;50.874;6.466;2024-03-06T10:42:06;101076.94;;;13.00;79.49
63115;BME280;49208;50.874;6.466;2024-03-06T10:44:34;101080.41;;;12.50;70.18
63115;BME280;49208;50.874;6.466;2024-03-06T10:47:01;101079.34;;;12.56;69.30
63115;BME280;49208;50.874;6.466;2024-03-06T10:49:28;101082.88;;;12.30;73.90
63115;BME280;49208;50.874;6.466;2024-03-06T10:51:58;101089.22;;;12.54;73.59
63115;BME280;49208;50.874;6.466;2024-03-06T10:54:27;101092.44;;;12.64;73.12
63115;BME280;49208;50.874;6.466;2024-03-06T10:56:53;101076.88;;;12.77;73.88
63115;BME280;49208;50.874;6.466;2024-03-06T10:59:20;101088.63;;;12.71;72.22
63115;BME280;49208;50.874;6.466;2024-03-06T11:01:46;101082.63;;;12.64;72.54
63115;BME280;49208;50.874;6.466;2024-03-06T11:04:12;101083.88;;;12.26;72.26
63115;BME280;49208;50.874;6.466;2024-03-06T11:06:38;101085.66;;;12.27;71.08
63115;BME280;49208;50.874;6.466;2024-03-06T11:09:04;101082.88;;;12.30;73.60
63115;BME280;49208;50.874;6.466;2024-03-06T11:11:31;101084.56;;;12.32;70.88
63115;BME280;49208;50.874;6.466;2024-03-06T11:14:03;101088.78;;;12.40;72.15
63115;BME280;49208;50.874;6.466;2024-03-06T11:16:32;101085.31;;;12.64;76.85
63115;BME280;49208;50.874;6.466;2024-03-06T11:19:17;101082.22;;;12.77;73.40
63115;BME280;49208;50.874;6.466;2024-03-06T11:21:46;101076.13;;;12.71;71.76
63115;BME280;49208;50.874;6.466;2024-03-06T11:24:13;101085.16;;;12.69;74.43
63115;BME280;49208;50.874;6.466;2024-03-06T11:26:43;101079.22;;;12.86;75.24
63115;BME280;49208;50.874;6.466;2024-03-06T11:29:08;101078.00;;;12.94;73.82
63115;BME280;49208;50.874;6.466;2024-03-06T11:31:34;101086.81;;;12.98;69.33
63115;BME280;49208;50.874;6.466;2024-03-06T11:34:04;101082.13;;;12.78;65.88
63115;BME280;49208;50.874;6.466;2024-03-06T11:36:30;101086.44;;;12.82;69.55
63115;BME280;49208;50.874;6.466;2024-03-06T11:39:01;101084.09;;;13.00;71.89
63115;BME280;49208;50.874;6.466;2024-03-06T11:41:33;101090.75;;;12.86;70.02
63115;BME280;49208;50.874;6.466;2024-03-06T11:44:18;101086.31;;;12.87;69.02
63115;BME280;49208;50.874;6.466;2024-03-06T11:49:27;101083.31;;;12.96;69.36
63115;BME280;49208;50.874;6.466;2024-03-06T11:52:01;101088.66;;;12.96;71.18
63115;BME280;49208;50.874;6.466;2024-03-06T11:54:27;101091.94;;;13.04;67.29
63115;BME280;49208;50.874;6.466;2024-03-06T11:56:56;101080.75;;;13.18;68.22
63115;BME280;49208;50.874;6.466;2024-03-06T11:59:22;101092.25;;;13.20;66.65
63115;BME280;49208;50.874;6.466;2024-03-06T12:01:48;101089.38;;;13.26;68.84
63115;BME280;49208;50.874;6.466;2024-03-06T12:04:13;101087.41;;;13.06;64.40
63115;BME280;49208;50.874;6.466;2024-03-06T12:06:39;101087.22;;;12.86;66.27
63115;BME280;49208;50.874;6.466;2024-03-06T12:09:04;101085.59;;;12.55;66.59
63115;BME280;49208;50.874;6.466;2024-03-06T12:11:29;101100.94;;;12.22;66.44
63115;BME280;49208;50.874;6.466;2024-03-06T12:13:56;101093.09;;;11.87;68.69
63115;BME280;49208;50.874;6.466;2024-03-06T12:16:23;101088.63;;;11.58;70.73
63115;BME280;49208;50.874;6.466;2024-03-06T12:18:56;101090.00;;;11.42;71.80
63115;BME280;49208;50.874;6.466;2024-03-06T12:21:32;101090.84;;;11.42;73.85
63115;BME280;49208;50.874;6.466;2024-03-06T12:24:08;101083.88;;;11.38;74.87
63115;BME280;49208;50.874;6.466;2024-03-06T12:26:34;101085.66;;;11.38;74.50
63115;BME280;49208;50.874;6.466;2024-03-06T12:29:10;101093.69;;;11.67;76.53
63115;BME280;49208;50.874;6.466;2024-03-06T12:31:37;101089.25;;;11.98;73.89
63115;BME280;49208;50.874;6.466;2024-03-06T12:34:05;101088.78;;;12.11;71.71
63115;BME280;49208;50.874;6.466;2024-03-06T12:36:32;101087.25;;;12.04;69.47
63115;BME280;49208;50.874;6.466;2024-03-06T12:39:02;101092.84;;;11.95;69.50
63115;BME280;49208;50.874;6.466;2024-03-06T12:41:29;101092.94;;;11.93;64.42
63115;BME280;49208;50.874;6.466;2024-03-06T12:43:55;101088.34;;;11.97;62.08
63115;BME280;49208;50.874;6.466;2024-03-06T12:46:21;101087.69;;;12.19;64.76
63115;BME280;49208;50.874;6.466;2024-03-06T12:48:47;101083.84;;;12.27;62.97
63115;BME280;49208;50.874;6.466;2024-03-06T12:51:12;101093.25;;;12.39;63.03
63115;BME280;49208;50.874;6.466;2024-03-06T12:53:38;101083.25;;;12.46;63.53
63115;BME280;49208;50.874;6.466;2024-03-06T12:56:03;101084.03;;;12.49;62.99
63115;BME280;49208;50.874;6.466;2024-03-06T12:58:29;101086.59;;;12.52;64.59
63115;BME280;49208;50.874;6.466;2024-03-06T13:00:56;101081.84;;;12.61;64.41
63115;BME280;49208;50.874;6.466;2024-03-06T13:03:23;101078.00;;;12.69;64.86
63115;BME280;49208;50.874;6.466;2024-03-06T13:05:48;101075.84;;;12.81;64.37
63115;BME280;49208;50.874;6.466;2024-03-06T13:08:14;101076.72;;;12.81;61.81
63115;BME280;49208;50.874;6.466;2024-03-06T13:10:42;101079.47;;;12.78;58.96
63115;BME280;49208;50.874;6.466;2024-03-06T13:13:08;101073.50;;;12.70;59.53
63115;BME280;49208;50.874;6.466;2024-03-06T13:15:34;101081.91;;;12.59;58.74
63115;BME280;49208;50.874;6.466;2024-03-06T13:18:00;101077.75;;;12.50;60.66
63115;BME280;49208;50.874;6.466;2024-03-06T13:20:29;101087.19;;;12.34;61.72
63115;BME280;49208;50.874;6.466;2024-03-06T13:22:54;101082.25;;;12.22;61.90
63115;BME280;49208;50.874;6.466;2024-03-06T13:25:20;101081.13;;;12.01;60.46
63115;BME280;49208;50.874;6.466;2024-03-06T13:27:46;101081.72;;;12.10;62.90
63115;BME280;49208;50.874;6.466;2024-03-06T13:30:11;101079.91;;;12.11;60.23
63115;BME280;49208;50.874;6.466;2024-03-06T13:32:37;101082.59;;;12.11;59.69
63115;BME280;49208;50.874;6.466;2024-03-06T13:35:03;101077.09;;;12.16;58.30
63115;BME280;49208;50.874;6.466;2024-03-06T13:37:29;101080.31;;;12.27;57.33
63115;BME280;49208;50.874;6.466;2024-03-06T13:39:54;101079.66;;;12.20;57.89
63115;BME280;49208;50.874;6.466;2024-03-06T13:42:26;101081.44;;;12.46;58.04
63115;BME280;49208;50.874;6.466;2024-03-06T13:44:51;101093.56;;;12.57;55.37
63115;BME280;49208;50.874;6.466;2024-03-06T13:47:17;101085.50;;;12.58;56.60
63115;BME280;49208;50.874;6.466;2024-03-06T13:49:42;101085.81;;;12.49;54.67
63115;BME280;49208;50.874;6.466;2024-03-06T13:52:09;101085.91;;;12.46;55.32
63115;BME280;49208;50.874;6.466;2024-03-06T13:54:41;101085.50;;;12.31;55.98
63115;BME280;49208;50.874;6.466;2024-03-06T13:57:08;101088.78;;;12.11;58.63
63115;BME280;49208;50.874;6.466;2024-03-06T13:59:34;101092.97;;;11.92;55.02
63115;BME280;49208;50.874;6.466;2024-03-06T14:02:00;101087.97;;;11.50;57.07
63115;BME280;49208;50.874;6.466;2024-03-06T14:04:28;101091.72;;;11.43;57.46
63115;BME280;49208;50.874;6.466;2024-03-06T14:06:53;101091.66;;;11.46;57.10
63115;BME280;49208;50.874;6.466;2024-03-06T14:09:19;101096.72;;;11.53;57.31
63115;BME280;49208;50.874;6.466;2024-03-06T14:11:44;101084.16;;;11.59;57.79
63115;BME280;49208;50.874;6.466;2024-03-06T14:14:10;101090.28;;;11.62;57.95
63115;BME280;49208;50.874;6.466;2024-03-06T14:16:36;101087.56;;;11.64;56.16
63115;BME280;49208;50.874;6.466;2024-03-06T14:19:03;101093.69;;;11.67;57.83
63115;BME280;49208;50.874;6.466;2024-03-06T14:21:30;101096.16;;;11.73;58.01
63115;BME280;49208;50.874;6.466;2024-03-06T14:23:55;101096.94;;;11.77;52.98
63115;BME280;49208;50.874;6.466;2024-03-06T14:26:20;101096.44;;;11.64;52.81
63115;BME280;49208;50.874;6.466;2024-03-06T14:28:46;101100.78;;;11.68;54.33
63115;BME280;49208;50.874;6.466;2024-03-06T14:31:11;101093.72;;;11.66;54.26
63115;BME280;49208;50.874;6.466;2024-03-06T14:33:40;101100.13;;;11.60;54.46
63115;BME280;49208;50.874;6.466;2024-03-06T14:36:05;101100.00;;;11.63;54.99
63115;BME280;49208;50.874;6.466;2024-03-06T14:38:32;101098.22;;;11.64;56.60
63115;BME280;49208;50.874;6.466;2024-03-06T14:40:58;101100.13;;;11.60;54.00
63115;BME280;49208;50.874;6.466;2024-03-06T14:43:24;101099.97;;;11.65;54.78
63115;BME280;49208;50.874;6.466;2024-03-06T14:45:50;101092.78;;;11.68;55.21
63115;BME280;49208;50.874;6.466;2024-03-06T14:48:15;101095.84;;;11.55;56.54
63115;BME280;49208;50.874;6.466;2024-03-06T14:50:40;101098.47;;;11.56;58.17
63115;BME280;49208;50.874;6.466;2024-03-06T14:53:06;101096.03;;;11.47;59.72
63115;BME280;49208;50.874;6.466;2024-03-06T14:55:32;101097.66;;;11.52;63.23
63115;BME280;49208;50.874;6.466;2024-03-06T14:57:57;101094.00;;;11.57;64.63
63115;BME280;49208;50.874;6.466;2024-03-06T15:00:23;101093.13;;;11.56;63.34
63115;BME280;49208;50.874;6.466;2024-03-06T15:02:48;101093.03;;;11.59;63.75
63115;BME280;49208;50.874;6.466;2024-03-06T15:05:14;101090.41;;;11.58;66.08
63115;BME280;49208;50.874;6.466;2024-03-06T15:07:39;101093.13;;;11.56;65.72
63115;BME280;49208;50.874;6.466;2024-03-06T15:10:06;101088.72;;;11.53;65.76
63115;BME280;49208;50.874;6.466;2024-03-06T15:12:31;101095.06;;;11.49;65.62
63115;BME280;49208;50.874;6.466;2024-03-06T15:14:57;101097.88;;;11.45;66.47
63115;BME280;49208;50.874;6.466;2024-03-06T15:17:24;101104.97;;;11.46;65.25
63115;BME280;49208;50.874;6.466;2024-03-06T15:19:51;101099.16;;;11.31;65.98
63115;BME280;49208;50.874;6.466;2024-03-06T15:22:17;101100.03;;;11.32;67.82
63115;BME280;49208;50.874;6.466;2024-03-06T15:24:42;101107.03;;;11.36;69.04
63115;BME280;49208;50.874;6.466;2024-03-06T15:27:12;101106.50;;;11.23;69.85
63115;BME280;49208;50.874;6.466;2024-03-06T15:29:37;101107.66;;;11.13;70.43
63115;BME280;49208;50.874;6.466;2024-03-06T15:32:03;101109.81;;;10.99;71.23
63115;BME280;49208;50.874;6.466;2024-03-06T15:34:29;101112.78;;;10.88;70.77
63115;BME280;49208;50.874;6.466;2024-03-06T15:36:54;101103.91;;;10.87;70.54
63115;BME280;49208;50.874;6.466;2024-03-06T15:39:20;101109.34;;;10.83;71.25
63115;BME280;49208;50.874;6.466;2024-03-06T15:41:46;101103.09;;;10.85;71.08
63115;BME280;49208;50.874;6.466;2024-03-06T15:44:12;101108.34;;;10.87;71.68
63115;BME280;49208;50.874;6.466;2024-03-06T15:46:37;101112.81;;;10.86;71.14
63115;BME280;49208;50.874;6.466;2024-03-06T15:49:06;101108.47;;;10.82;70.61
63115;BME280;49208;50.874;6.466;2024-03-06T15:51:32;101108.56;;;10.79;70.59
63115;BME280;49208;50.874;6.466;2024-03-06T15:53:57;101114.00;;;10.75;71.41
63115;BME280;49208;50.874;6.466;2024-03-06T15:56:22;101110.63;;;10.68;71.33
63115;BME280;49208;50.874;6.466;2024-03-06T15:58:48;101105.38;;;10.65;70.00
63115;BME280;49208;50.874;6.466;2024-03-06T16:01:13;101109.81;;;10.64;70.79
63115;BME280;49208;50.874;6.466;2024-03-06T16:03:39;101104.59;;;10.60;71.80
63115;BME280;49208;50.874;6.466;2024-03-06T16:06:04;101119.75;;;10.58;73.53
63115;BME280;49208;50.874;6.466;2024-03-06T16:08:29;101120.00;;;10.47;73.80
63115;BME280;49208;50.874;6.466;2024-03-06T16:10:55;101115.84;;;10.35;74.82
63115;BME280;49208;50.874;6.466;2024-03-06T16:13:21;101120.50;;;10.25;75.36
63115;BME280;49208;50.874;6.466;2024-03-06T16:15:47;101124.34;;;10.12;75.45
63115;BME280;49208;50.874;6.466;2024-03-06T16:18:14;101123.72;;;10.01;75.58
63115;BME280;49208;50.874;6.466;2024-03-06T16:20:40;101130.00;;;9.97;75.80
63115;BME280;49208;50.874;6.466;2024-03-06T16:23:06;101132.84;;;9.89;76.37
63115;BME280;49208;50.874;6.466;2024-03-06T16:25:32;101128.59;;;9.80;77.78
63115;BME280;49208;50.874;6.466;2024-03-06T16:27:58;101125.25;;;9.70;78.37
63115;BME280;49208;50.874;6.466;2024-03-06T16:30:23;101135.13;;;9.64;78.92
63115;BME280;49208;50.874;6.466;2024-03-06T16:32:48;101136.22;;;9.55;79.04
63115;BME280;49208;50.874;6.466;2024-03-06T16:35:14;101132.81;;;9.48;79.09
63115;BME280;49208;50.874;6.466;2024-03-06T16:37:40;101139.09;;;9.44;79.63
63115;BME280;49208;50.874;6.466;2024-03-06T16:40:06;101138.28;;;9.39;79.66
63115;BME280;49208;50.874;6.466;2024-03-06T16:42:32;101144.53;;;9.37;79.59
63115;BME280;49208;50.874;6.466;2024-03-06T16:44:57;101143.72;;;9.33;80.27
63115;BME280;49208;50.874;6.466;2024-03-06T16:47:23;101148.25;;;9.28;80.48
63115;BME280;49208;50.874;6.466;2024-03-06T16:49:48;101152.66;;;9.27;80.71
63115;BME280;49208;50.874;6.466;2024-03-06T16:52:14;101150.09;;;9.23;80.90
63115;BME280;49208;50.874;6.466;2024-03-06T16:54:40;101154.66;;;9.18;81.34
63115;BME280;49208;50.874;6.466;2024-03-06T16:57:06;101165.38;;;9.12;82.08
63115;BME280;49208;50.874;6.466;2024-03-06T16:59:31;101166.38;;;9.04;83.12
63115;BME280;49208;50.874;6.466;2024-03-06T17:01:57;101153.19;;;8.98;83.61
63115;BME280;49208;50.874;6.466;2024-03-06T17:04:22;101165.69;;;8.95;84.20
63115;BME280;49208;50.874;6.466;2024-03-06T17:06:48;101171.91;;;8.92;84.60
63115;BME280;49208;50.874;6.466;2024-03-06T17:09:13;101168.38;;;8.90;85.18
63115;BME280;49208;50.874;6.466;2024-03-06T17:11:39;101172.06;;;8.84;85.32
63115;BME280;49208;50.874;6.466;2024-03-06T17:14:05;101168.56;;;8.81;86.23
63115;BME280;49208;50.874;6.466;2024-03-06T17:16:30;101169.53;;;8.75;86.26
63115;BME280;49208;50.874;6.466;2024-03-06T17:18:56;101173.22;;;8.66;86.75
63115;BME280;49208;50.874;6.466;2024-03-06T17:21:21;101176.84;;;8.61;87.30
63115;BME280;49208;50.874;6.466;2024-03-06T17:23:47;101181.44;;;8.51;87.87
63115;BME280;49208;50.874;6.466;2024-03-06T17:26:15;101183.31;;;8.43;88.28
63115;BME280;49208;50.874;6.466;2024-03-06T17:28:41;101181.56;;;8.42;88.67
63115;BME280;49208;50.874;6.466;2024-03-06T17:31:07;101189.56;;;8.37;89.12
63115;BME280;49208;50.874;6.466;2024-03-06T17:33:32;101187.91;;;8.30;89.43
63115;BME280;49208;50.874;6.466;2024-03-06T17:35:58;101192.44;;;8.22;89.92
63115;BME280;49208;50.874;6.466;2024-03-06T17:38:24;101186.28;;;8.17;90.23
63115;BME280;49208;50.874;6.466;2024-03-06T17:40:51;101182.88;;;8.08;90.92
63115;BME280;49208;50.874;6.466;2024-03-06T17:43:16;101184.72;;;8.03;91.02
63115;BME280;49208;50.874;6.466;2024-03-06T17:45:42;101187.41;;;7.99;91.33
63115;BME280;49208;50.874;6.466;2024-03-06T17:48:08;101188.41;;;7.90;91.97
63115;BME280;49208;50.874;6.466;2024-03-06T17:50:34;101193.84;;;7.79;92.76
63115;BME280;49208;50.874;6.466;2024-03-06T17:53:02;101193.06;;;7.69;93.38
63115;BME280;49208;50.874;6.466;2024-03-06T17:55:27;101192.28;;;7.63;93.84
63115;BME280;49208;50.874;6.466;2024-03-06T17:57:53;101197.66;;;7.55;94.77
63115;BME280;49208;50.874;6.466;2024-03-06T18:00:18;101192.41;;;7.49;94.84
63115;BME280;49208;50.874;6.466;2024-03-06T18:02:44;101203.97;;;7.42;95.29
63115;BME280;49208;50.874;6.466;2024-03-06T18:05:10;101204.06;;;7.36;95.86
63115;BME280;49208;50.874;6.466;2024-03-06T18:07:35;101198.81;;;7.31;95.95
63115;BME280;49208;50.874;6.466;2024-03-06T18:10:02;101208.53;;;7.26;96.11
63115;BME280;49208;50.874;6.466;2024-03-06T18:12:27;101204.16;;;7.23;96.42
63115;BME280;49208;50.874;6.466;2024-03-06T18:14:56;101202.44;;;7.21;96.27
63115;BME280;49208;50.874;6.466;2024-03-06T18:17:22;101206.06;;;7.12;97.00
63115;BME280;49208;50.874;6.466;2024-03-06T18:19:52;101214.91;;;7.05;97.65
63115;BME280;49208;50.874;6.466;2024-03-06T18:22:18;101217.66;;;6.97;97.84
63115;BME280;49208;50.874;6.466;2024-03-06T18:24:44;101213.28;;;6.88;98.14
63115;BME280;49208;50.874;6.466;2024-03-06T18:27:10;101211.59;;;6.78;98.22
63115;BME280;49208;50.874;6.466;2024-03-06T18:29:36;101216.06;;;6.73;98.52
63115;BME280;49208;50.874;6.466;2024-03-06T18:32:02;101211.69;;;6.69;98.38
63115;BME280;49208;50.874;6.466;2024-03-06T18:34:28;101209.94;;;6.65;98.83
63115;BME280;49208;50.874;6.466;2024-03-06T18:36:54;101216.19;;;6.56;99.69
63115;BME280;49208;50.874;6.466;2024-03-06T18:39:20;101215.38;;;6.50;100.00
63115;BME280;49208;50.874;6.466;2024-03-06T18:41:45;101217.19;;;6.41;100.00
63115;BME280;49208;50.874;6.466;2024-03-06T18:44:10;101216.34;;;6.32;100.00
63115;BME280;49208;50.874;6.466;2024-03-06T18:46:39;101223.44;;;6.22;100.00
63115;BME280;49208;50.874;6.466;2024-03-06T18:49:05;101223.50;;;6.13;100.00
63115;BME280;49208;50.874;6.466;2024-03-06T18:51:31;101224.38;;;6.07;100.00
63115;BME280;49208;50.874;6.466;2024-03-06T18:53:56;101224.41;;;6.04;100.00
63115;BME280;49208;50.874;6.466;2024-03-06T18:56:22;101229.72;;;5.98;100.00
63115;BME280;49208;50.874;6.466;2024-03-06T18:58:48;101227.94;;;5.91;100.00
63115;BME280;49208;50.874;6.466;2024-03-06T19:01:14;101227.97;;;5.84;100.00
63115;BME280;49208;50.874;6.466;2024-03-06T19:03:39;101231.50;;;5.82;100.00
63115;BME280;49208;50.874;6.466;2024-03-06T19:06:06;101226.22;;;5.79;100.00
63115;BME280;49208;50.874;6.466;2024-03-06T19:08:32;101227.97;;;5.77;100.00
63115;BME280;49208;50.874;6.466;2024-03-06T19:10:57;101234.13;;;5.79;100.00
63115;BME280;49208;50.874;6.466;2024-03-06T19:13:23;101237.66;;;5.84;100.00
63115;BME280;49208;50.874;6.466;2024-03-06T19:15:48;101233.25;;;5.97;100.00
63115;BME280;49208;50.874;6.466;2024-03-06T19:18:14;101241.13;;;6.11;100.00
63115;BME280;49208;50.874;6.466;2024-03-06T19:20:39;101239.31;;;6.17;100.00
63115;BME280;49208;50.874;6.466;2024-03-06T19:23:05;101239.28;;;6.22;100.00
63115;BME280;49208;50.874;6.466;2024-03-06T19:25:30;101238.41;;;6.26;100.00
63115;BME280;49208;50.874;6.466;2024-03-06T19:27:55;101248.03;;;6.39;100.00
63115;BME280;49208;50.874;6.466;2024-03-06T19:30:21;101242.72;;;6.41;100.00
63115;BME280;49208;50.874;6.466;2024-03-06T19:32:46;101248.00;;;6.42;100.00
63115;BME280;49208;50.874;6.466;2024-03-06T19:35:12;101248.00;;;6.45;100.00
63115;BME280;49208;50.874;6.466;2024-03-06T19:37:37;101236.47;;;6.53;100.00
63115;BME280;49208;50.874;6.466;2024-03-06T19:40:03;101247.06;;;6.56;100.00
63115;BME280;49208;50.874;6.466;2024-03-06T19:42:35;101240.00;;;6.53;100.00
63115;BME280;49208;50.874;6.466;2024-03-06T19:45:01;101240.94;;;6.47;100.00
63115;BME280;49208;50.874;6.466;2024-03-06T19:47:28;101238.31;;;6.40;100.00
63115;BME280;49208;50.874;6.466;2024-03-06T19:49:53;101241.88;;;6.34;100.00
63115;BME280;49208;50.874;6.466;2024-03-06T19:52:19;101238.38;;;6.31;100.00